createdAt,value
2023-04-29T00:01:32.129Z,101482.22
2023-04-29T00:03:59.532Z,101484.97
2023-04-29T00:06:26.870Z,101490.44
2023-04-29T00:08:53.913Z,101488.72
2023-04-29T00:11:21.448Z,101488.81
2023-04-29T00:13:48.506Z,101488.00
2023-04-29T00:16:15.570Z,101492.63
2023-04-29T00:18:42.960Z,101501.44
2023-04-29T00:21:09.989Z,101491.84
2023-04-29T00:23:36.987Z,101494.50
2023-04-29T00:26:04.273Z,101495.47
2023-04-29T00:28:31.308Z,101501.66
2023-04-29T00:30:58.433Z,101514.16
2023-04-29T00:33:25.887Z,101506.34
2023-04-29T00:35:53.318Z,101508.13
2023-04-29T00:38:21.653Z,101501.97
2023-04-29T00:40:48.997Z,101503.78
2023-04-29T00:43:16.027Z,101514.59
2023-04-29T00:45:43.310Z,101512.81
2023-04-29T00:48:10.444Z,101507.72
2023-04-29T00:50:37.610Z,101517.41
2023-04-29T00:53:05.236Z,101518.34
2023-04-29T00:55:34.175Z,101518.34
2023-04-29T00:58:03.076Z,101521.13
2023-04-29T01:00:31.224Z,101525.59
2023-04-29T01:03:00.129Z,101522.25
2023-04-29T01:05:27.735Z,101534.53
2023-04-29T01:08:32.173Z,101532.84
2023-04-29T01:11:07.652Z,101532.03
2023-04-29T01:13:50.336Z,101533.84
2023-04-29T01:16:35.476Z,101535.69
2023-04-29T01:19:13.294Z,101532.28
2023-04-29T01:21:49.191Z,101530.63
2023-04-29T01:24:16.675Z,101532.38
2023-04-29T01:26:57.071Z,101531.56
2023-04-29T01:29:47.793Z,101534.38
2023-04-29T01:32:19.316Z,101542.34
2023-04-29T01:35:05.932Z,101537.03
2023-04-29T01:37:39.489Z,101537.81
2023-04-29T01:40:33.688Z,101526.44
2023-04-29T01:43:03.635Z,101530.91
2023-04-29T01:45:34.623Z,101542.47
2023-04-29T01:48:03.038Z,101540.88
2023-04-29T01:50:30.778Z,101549.63
2023-04-29T01:52:57.708Z,101543.47
2023-04-29T01:55:24.711Z,101554.91
2023-04-29T01:57:51.663Z,101554.16
2023-04-29T02:00:18.759Z,101555.09
2023-04-29T02:02:45.752Z,101557.75
2023-04-29T02:05:12.768Z,101558.53
2023-04-29T02:07:40.277Z,101560.31
2023-04-29T02:10:08.138Z,101562.09
2023-04-29T02:12:35.089Z,101550.81
2023-04-29T02:15:02.479Z,101560.41
2023-04-29T02:17:29.451Z,101553.38
2023-04-29T02:19:56.440Z,101556.94
2023-04-29T02:22:23.379Z,101564.88
2023-04-29T02:24:50.305Z,101555.25
2023-04-29T02:27:17.459Z,101550.22
2023-04-29T02:29:44.444Z,101555.28
2023-04-29T02:32:11.970Z,101562.38
2023-04-29T02:34:39.072Z,101565.13
2023-04-29T02:37:06.619Z,101565.97
2023-04-29T02:39:33.577Z,101576.59
2023-04-29T02:42:00.517Z,101569.56
2023-04-29T02:44:27.490Z,101572.19
2023-04-29T02:46:54.436Z,101565.97
2023-04-29T02:49:21.813Z,101560.75
2023-04-29T02:51:50.241Z,101569.50
2023-04-29T02:54:17.806Z,101569.50
2023-04-29T02:56:44.674Z,101567.78
2023-04-29T02:59:11.626Z,101575.63
2023-04-29T03:01:39.214Z,101574.84
2023-04-29T03:04:07.124Z,101582.75
2023-04-29T03:06:34.307Z,101584.53
2023-04-29T03:09:01.233Z,101591.53
2023-04-29T03:11:28.445Z,101581.94
2023-04-29T03:13:55.739Z,101586.47
2023-04-29T03:16:23.505Z,101590.91
2023-04-29T03:18:50.500Z,101587.47
2023-04-29T03:21:17.988Z,101587.47
2023-04-29T03:23:45.154Z,101604.25
2023-04-29T03:26:12.531Z,101598.22
2023-04-29T03:28:39.443Z,101607.03
2023-04-29T03:31:06.451Z,101608.75
2023-04-29T03:33:33.726Z,101610.59
2023-04-29T03:36:00.654Z,101611.41
2023-04-29T03:38:27.583Z,101621.13
2023-04-29T03:40:54.623Z,101620.22
2023-04-29T03:43:21.603Z,101613.97
2023-04-29T03:45:48.641Z,101614.84
2023-04-29T03:48:15.694Z,101615.69
2023-04-29T03:50:42.753Z,101613.06
2023-04-29T03:53:09.849Z,101614.06
2023-04-29T03:55:36.758Z,101621.88
2023-04-29T03:58:04.024Z,101627.22
2023-04-29T04:00:31.752Z,101630.75
2023-04-29T04:02:59.472Z,101633.31
2023-04-29T04:05:27.247Z,101628.00
2023-04-29T04:07:54.670Z,101629.81
2023-04-29T04:10:21.559Z,101629.88
2023-04-29T04:12:48.652Z,101630.81
2023-04-29T04:15:17.357Z,101632.66
2023-04-29T04:17:44.313Z,101626.50
2023-04-29T04:20:11.906Z,101635.19
2023-04-29T04:22:38.868Z,101626.34
2023-04-29T04:25:06.529Z,101621.91
2023-04-29T04:27:33.471Z,101627.22
2023-04-29T04:30:00.389Z,101625.53
2023-04-29T04:32:27.340Z,101626.31
2023-04-29T04:34:54.332Z,101629.88
2023-04-29T04:37:21.314Z,101633.47
2023-04-29T04:39:48.415Z,101639.59
2023-04-29T04:42:15.350Z,101645.78
2023-04-29T04:44:42.292Z,101638.78
2023-04-29T04:47:09.311Z,101646.78
2023-04-29T04:49:36.191Z,101648.50
2023-04-29T04:52:03.108Z,101660.81
2023-04-29T04:54:30.075Z,101667.84
2023-04-29T04:56:56.960Z,101662.69
2023-04-29T04:59:23.934Z,101665.69
2023-04-29T05:01:51.077Z,101667.59
2023-04-29T05:04:18.174Z,101663.56
2023-04-29T05:06:47.065Z,101669.38
2023-04-29T05:09:14.004Z,101670.97
2023-04-29T05:11:42.261Z,101674.41
2023-04-29T05:14:09.164Z,101676.16
2023-04-29T05:16:36.508Z,101677.84
2023-04-29T05:19:03.514Z,101685.44
2023-04-29T05:21:31.972Z,101691.72
2023-04-29T05:23:58.904Z,101709.63
2023-04-29T05:26:25.832Z,101710.50
2023-04-29T05:28:52.757Z,101703.22
2023-04-29T05:31:19.710Z,101702.69
2023-04-29T05:33:46.862Z,101702.00
2023-04-29T05:36:13.837Z,101695.47
2023-04-29T05:38:41.064Z,101691.75
2023-04-29T05:41:08.073Z,101691.63
2023-04-29T05:43:36.233Z,101693.38
2023-04-29T05:46:04.016Z,101703.84
2023-04-29T05:48:31.036Z,101714.56
2023-04-29T05:50:58.251Z,101702.88
2023-04-29T05:53:25.238Z,101708.00
2023-04-29T05:55:52.282Z,101700.78
2023-04-29T05:58:19.230Z,101704.22
2023-04-29T06:00:46.280Z,101705.28
2023-04-29T06:03:13.453Z,101701.63
2023-04-29T06:05:40.926Z,101701.75
2023-04-29T06:08:08.347Z,101705.06
2023-04-29T06:10:37.425Z,101706.06
2023-04-29T06:13:04.895Z,101709.50
2023-04-29T06:15:31.998Z,101709.50
2023-04-29T06:17:59.117Z,101716.63
2023-04-29T06:20:26.133Z,101722.75
2023-04-29T06:22:53.168Z,101712.31
2023-04-29T06:25:20.277Z,101713.88
2023-04-29T06:27:47.393Z,101722.69
2023-04-29T06:30:14.475Z,101736.94
2023-04-29T06:32:41.617Z,101726.22
2023-04-29T06:35:09.145Z,101734.94
2023-04-29T06:37:37.926Z,101744.75
2023-04-29T06:40:06.162Z,101737.06
2023-04-29T06:42:34.352Z,101744.22
2023-04-29T06:45:01.625Z,101747.00
2023-04-29T06:47:29.076Z,101742.69
2023-04-29T06:49:56.170Z,101748.00
2023-04-29T06:52:23.141Z,101753.75
2023-04-29T06:54:50.090Z,101754.41
2023-04-29T06:57:17.664Z,101762.34
2023-04-29T06:59:44.869Z,101769.25
2023-04-29T07:02:11.982Z,101777.00
2023-04-29T07:04:39.394Z,101789.97
2023-04-29T07:07:07.369Z,101794.13
2023-04-29T07:09:34.391Z,101787.84
2023-04-29T07:12:03.051Z,101790.38
2023-04-29T07:14:30.073Z,101786.84
2023-04-29T07:16:57.141Z,101801.06
2023-04-29T07:19:24.470Z,101804.72
2023-04-29T07:21:51.511Z,101798.03
2023-04-29T07:24:18.571Z,101798.44
2023-04-29T07:26:45.894Z,101797.19
2023-04-29T07:29:12.981Z,101802.25
2023-04-29T07:31:40.057Z,101811.72
2023-04-29T07:34:07.155Z,101801.81
2023-04-29T07:36:34.196Z,101799.81
2023-04-29T07:39:05.332Z,101791.81
2023-04-29T07:41:32.358Z,101797.00
2023-04-29T07:43:59.442Z,101806.59
2023-04-29T07:46:26.447Z,101805.59
2023-04-29T07:48:53.527Z,101801.09
2023-04-29T07:51:20.585Z,101803.59
2023-04-29T07:53:47.625Z,101807.03
2023-04-29T07:56:14.795Z,101809.78
2023-04-29T07:58:41.902Z,101808.91
2023-04-29T08:01:12.648Z,101806.25
2023-04-29T08:03:41.969Z,101810.69
2023-04-29T08:06:09.655Z,101815.09
2023-04-29T08:08:36.956Z,101817.72
2023-04-29T08:11:04.742Z,101817.66
2023-04-29T08:13:31.832Z,101823.81
2023-04-29T08:15:58.839Z,101815.78
2023-04-29T08:18:26.133Z,101823.75
2023-04-29T08:20:53.998Z,101824.56
2023-04-29T08:23:21.480Z,101835.09
2023-04-29T08:25:48.657Z,101830.66
2023-04-29T08:28:15.718Z,101828.00
2023-04-29T08:30:42.999Z,101825.47
2023-04-29T08:33:10.578Z,101835.09
2023-04-29T08:35:38.129Z,101841.25
2023-04-29T08:38:06.915Z,101839.25
2023-04-29T08:40:42.668Z,101839.13
2023-04-29T08:43:11.115Z,101833.81
2023-04-29T08:45:38.329Z,101837.25
2023-04-29T08:48:07.154Z,101840.91
2023-04-29T08:50:42.088Z,101838.88
2023-04-29T08:53:10.093Z,101841.47
2023-04-29T08:55:47.242Z,101849.47
2023-04-29T08:58:15.881Z,101854.00
2023-04-29T09:00:44.332Z,101845.13
2023-04-29T09:03:47.712Z,101851.59
2023-04-29T09:06:15.652Z,101859.41
2023-04-29T09:08:42.971Z,101860.34
2023-04-29T09:11:12.464Z,101861.28
2023-04-29T09:13:39.681Z,101860.34
2023-04-29T09:16:12.273Z,101866.94
2023-04-29T09:18:52.190Z,101866.44
2023-04-29T09:21:32.609Z,101871.22
2023-04-29T09:24:02.106Z,101873.72
2023-04-29T09:26:43.617Z,101876.09
2023-04-29T09:29:16.499Z,101877.47
2023-04-29T09:31:43.674Z,101873.28
2023-04-29T09:34:14.900Z,101878.78
2023-04-29T09:36:51.413Z,101881.66
2023-04-29T09:39:20.782Z,101882.75
2023-04-29T09:41:53.917Z,101884.72
2023-04-29T09:44:34.564Z,101886.56
2023-04-29T09:47:04.427Z,101879.66
2023-04-29T09:49:45.992Z,101884.19
2023-04-29T09:52:21.209Z,101882.53
2023-04-29T09:54:48.570Z,101885.44
2023-04-29T09:57:16.291Z,101882.78
2023-04-29T09:59:43.959Z,101883.69
2023-04-29T10:02:19.066Z,101885.56
2023-04-29T10:04:48.165Z,101888.25
2023-04-29T10:07:17.456Z,101886.56
2023-04-29T10:09:48.640Z,101886.56
2023-04-29T10:12:18.950Z,101892.84
2023-04-29T10:15:26.088Z,101891.19
2023-04-29T10:18:03.699Z,101894.81
2023-04-29T10:20:31.826Z,101893.13
2023-04-29T10:23:00.449Z,101890.50
2023-04-29T10:25:29.045Z,101889.72
2023-04-29T10:27:56.691Z,101895.00
2023-04-29T10:30:23.746Z,101896.00
2023-04-29T10:32:52.958Z,101892.53
2023-04-29T10:35:24.843Z,101898.66
2023-04-29T10:37:53.266Z,101898.75
2023-04-29T10:40:26.840Z,101888.22
2023-04-29T10:42:54.829Z,101889.13
2023-04-29T10:45:27.735Z,101892.66
2023-04-29T10:48:07.007Z,101890.13
2023-04-29T10:50:42.818Z,101889.19
2023-04-29T10:53:09.833Z,101887.41
2023-04-29T10:55:38.203Z,101889.19
2023-04-29T10:58:06.447Z,101897.19
2023-04-29T11:00:35.564Z,101904.25
2023-04-29T11:03:06.492Z,101900.81
2023-04-29T11:05:37.831Z,101901.22
2023-04-29T11:08:24.837Z,101906.19
2023-04-29T11:11:01.164Z,101910.72
2023-04-29T11:13:30.887Z,101902.38
2023-04-29T11:16:08.067Z,101902.16
2023-04-29T11:18:37.230Z,101902.84
2023-04-29T11:21:07.379Z,101902.84
2023-04-29T11:23:35.658Z,101904.63
2023-04-29T11:26:03.354Z,101902.75
2023-04-29T11:28:34.445Z,101894.47
2023-04-29T11:31:03.822Z,101888.50
2023-04-29T11:33:33.495Z,101888.97
2023-04-29T11:36:01.351Z,101893.03
2023-04-29T11:38:29.628Z,101894.78
2023-04-29T11:40:57.952Z,101889.34
2023-04-29T11:43:25.692Z,101885.78
2023-04-29T11:45:54.189Z,101882.84
2023-04-29T11:48:25.932Z,101886.13
2023-04-29T11:50:55.579Z,101892.22
2023-04-29T11:53:25.600Z,101899.09
2023-04-29T11:55:56.045Z,101901.50
2023-04-29T11:58:24.404Z,101900.47
2023-04-29T12:00:54.889Z,101897.56
2023-04-29T12:03:22.608Z,101885.94
2023-04-29T12:05:57.774Z,101891.75
2023-04-29T12:08:29.255Z,101898.44
2023-04-29T12:10:58.176Z,101901.47
2023-04-29T12:13:28.138Z,101892.34
2023-04-29T12:15:56.667Z,101891.09
2023-04-29T12:18:24.208Z,101893.47
2023-04-29T12:20:56.371Z,101889.59
2023-04-29T12:23:25.037Z,101887.56
2023-04-29T12:25:59.734Z,101880.09
2023-04-29T12:28:27.661Z,101882.44
2023-04-29T12:30:57.050Z,101880.31
2023-04-29T12:33:27.314Z,101887.13
2023-04-29T12:35:59.827Z,101881.53
2023-04-29T12:38:33.199Z,101882.75
2023-04-29T12:41:02.776Z,101892.34
2023-04-29T12:43:31.621Z,101892.22
2023-04-29T12:46:06.446Z,101891.94
2023-04-29T12:48:35.650Z,101890.72
2023-04-29T12:51:03.360Z,101891.69
2023-04-29T12:53:31.356Z,101894.38
2023-04-29T12:55:58.944Z,101888.94
2023-04-29T12:58:30.735Z,101890.81
2023-04-29T13:01:00.087Z,101896.63
2023-04-29T13:03:29.240Z,101894.63
2023-04-29T13:05:58.601Z,101890.88
2023-04-29T13:08:26.518Z,101898.69
2023-04-29T13:10:54.216Z,101894.84
2023-04-29T13:13:22.179Z,101898.66
2023-04-29T13:15:49.918Z,101892.81
2023-04-29T13:18:17.394Z,101895.09
2023-04-29T13:20:44.895Z,101889.66
2023-04-29T13:23:14.921Z,101895.44
2023-04-29T13:25:42.034Z,101890.91
2023-04-29T13:28:09.058Z,101897.97
2023-04-29T13:30:36.555Z,101895.13
2023-04-29T13:33:09.651Z,101895.06
2023-04-29T13:35:40.605Z,101891.28
2023-04-29T13:38:08.592Z,101888.34
2023-04-29T13:40:39.474Z,101887.31
2023-04-29T13:43:14.546Z,101884.56
2023-04-29T13:45:48.167Z,101882.78
2023-04-29T13:48:25.986Z,101882.53
2023-04-29T13:54:17.510Z,101884.66
2023-04-29T14:03:50.494Z,101892.63
2023-04-29T14:06:17.653Z,101891.63
2023-04-29T14:08:44.965Z,101890.66
2023-04-29T14:11:12.057Z,101894.28
2023-04-29T14:13:39.067Z,101888.16
2023-04-29T14:16:07.391Z,101889.03
2023-04-29T14:18:34.430Z,101883.50
2023-04-29T14:21:01.472Z,101889.59
2023-04-29T14:23:28.486Z,101879.25
2023-04-29T14:26:06.299Z,101881.00
2023-04-29T14:28:42.611Z,101882.78
2023-04-29T14:31:09.734Z,101872.38
2023-04-29T14:33:37.989Z,101879.69
2023-04-29T14:36:05.833Z,101884.09
2023-04-29T14:38:32.913Z,101877.84
2023-04-29T14:41:00.113Z,101876.25
2023-04-29T14:43:28.213Z,101865.22
2023-04-29T14:45:56.002Z,101863.41
2023-04-29T14:48:23.638Z,101863.25
2023-04-29T14:50:50.915Z,101866.59
2023-04-29T14:53:20.126Z,101855.00
2023-04-29T14:55:47.863Z,101866.25
2023-04-29T14:58:15.221Z,101877.72
2023-04-29T15:00:42.599Z,101886.84
2023-04-29T15:03:10.793Z,101873.72
2023-04-29T15:05:38.204Z,101877.53
2023-04-29T15:08:05.878Z,101880.66
2023-04-29T15:10:33.390Z,101886.50
2023-04-29T15:13:02.522Z,101879.19
2023-04-29T15:15:29.730Z,101877.03
2023-04-29T15:17:58.702Z,101872.88
2023-04-29T15:20:26.011Z,101881.06
2023-04-29T15:22:53.092Z,101878.03
2023-04-29T15:25:20.120Z,101875.53
2023-04-29T15:27:48.066Z,101865.31
2023-04-29T15:30:15.348Z,101867.16
2023-04-29T15:32:42.815Z,101864.31
2023-04-29T15:35:14.754Z,101866.19
2023-04-29T15:37:42.028Z,101870.34
2023-04-29T15:40:09.865Z,101872.16
2023-04-29T15:42:36.943Z,101875.75
2023-04-29T15:45:05.248Z,101876.75
2023-04-29T15:47:32.489Z,101869.63
2023-04-29T15:49:59.626Z,101870.59
2023-04-29T15:52:26.863Z,101872.47
2023-04-29T15:54:54.255Z,101874.88
2023-04-29T15:57:21.649Z,101868.66
2023-04-29T15:59:49.035Z,101851.63
2023-04-29T16:02:16.363Z,101857.44
2023-04-29T16:04:43.718Z,101855.50
2023-04-29T16:07:10.986Z,101857.84
2023-04-29T16:09:38.564Z,101863.97
2023-04-29T16:12:05.833Z,101863.78
2023-04-29T16:14:33.155Z,101868.81
2023-04-29T16:17:01.107Z,101868.69
2023-04-29T16:19:28.535Z,101864.00
2023-04-29T16:21:55.767Z,101866.16
2023-04-29T16:24:23.718Z,101857.94
2023-04-29T16:26:51.160Z,101862.13
2023-04-29T16:29:19.006Z,101856.66
2023-04-29T16:31:46.177Z,101853.00
2023-04-29T16:34:14.009Z,101852.84
2023-04-29T16:36:41.234Z,101848.97
2023-04-29T16:39:09.064Z,101844.13
2023-04-29T16:41:37.961Z,101844.47
2023-04-29T16:44:05.227Z,101840.84
2023-04-29T16:46:33.139Z,101839.22
2023-04-29T16:49:00.715Z,101840.66
2023-04-29T16:51:29.661Z,101846.53
2023-04-29T16:53:57.310Z,101846.59
2023-04-29T16:56:24.682Z,101843.94
2023-04-29T16:58:52.420Z,101838.13
2023-04-29T17:01:20.027Z,101842.41
2023-04-29T17:03:50.947Z,101836.34
2023-04-29T17:06:18.320Z,101836.84
2023-04-29T17:08:46.824Z,101838.25
2023-04-29T17:11:15.405Z,101836.25
2023-04-29T17:13:45.438Z,101835.06
2023-04-29T17:16:14.411Z,101836.56
2023-04-29T17:18:41.885Z,101846.09
2023-04-29T17:21:09.468Z,101835.41
2023-04-29T17:23:38.100Z,101842.34
2023-04-29T17:26:05.598Z,101844.06
2023-04-29T17:28:33.498Z,101851.44
2023-04-29T17:31:01.709Z,101839.78
2023-04-29T17:33:36.271Z,101836.34
2023-04-29T17:36:04.803Z,101830.69
2023-04-29T17:38:35.462Z,101831.53
2023-04-29T17:41:03.242Z,101835.00
2023-04-29T17:43:32.839Z,101834.81
2023-04-29T17:46:00.091Z,101824.97
2023-04-29T17:48:27.986Z,101823.09
2023-04-29T17:50:55.069Z,101823.88
2023-04-29T17:53:22.285Z,101827.31
2023-04-29T17:55:49.333Z,101821.97
2023-04-29T17:58:16.556Z,101820.13
2023-04-29T18:00:43.804Z,101808.63
2023-04-29T18:03:11.076Z,101812.19
2023-04-29T18:05:38.489Z,101811.69
2023-04-29T18:08:06.056Z,101808.41
2023-04-29T18:10:33.135Z,101811.22
2023-04-29T18:13:00.297Z,101812.88
2023-04-29T18:15:27.503Z,101819.03
2023-04-29T18:21:28.944Z,101810.66
2023-04-29T18:23:57.067Z,101817.63
2023-04-29T18:26:24.549Z,101816.66
2023-04-29T18:28:51.819Z,101813.94
2023-04-29T18:31:20.497Z,101818.38
2023-04-29T18:33:47.586Z,101812.19
2023-04-29T18:36:14.836Z,101814.81
2023-04-29T18:38:43.745Z,101815.41
2023-04-29T18:41:12.307Z,101817.22
2023-04-29T18:43:39.726Z,101823.56
2023-04-29T18:46:07.122Z,101822.69
2023-04-29T18:48:36.155Z,101825.34
2023-04-29T18:51:04.968Z,101824.88
2023-04-29T18:53:32.462Z,101830.69
2023-04-29T18:55:59.699Z,101836.34
2023-04-29T18:58:28.026Z,101821.41
2023-04-29T19:00:55.686Z,101829.44
2023-04-29T19:03:22.728Z,101823.09
2023-04-29T19:05:50.242Z,101829.03
2023-04-29T19:08:17.727Z,101818.50
2023-04-29T19:10:47.155Z,101821.78
2023-04-29T19:13:14.407Z,101825.91
2023-04-29T19:15:41.656Z,101821.97
2023-04-29T19:18:09.250Z,101812.81
2023-04-29T19:20:36.652Z,101817.56
2023-04-29T19:23:03.972Z,101817.25
2023-04-29T19:25:32.749Z,101818.63
2023-04-29T19:28:00.144Z,101817.69
2023-04-29T19:30:27.376Z,101816.06
2023-04-29T19:32:55.482Z,101815.19
2023-04-29T19:35:23.333Z,101814.00
2023-04-29T19:37:51.023Z,101822.56
2023-04-29T19:40:18.464Z,101823.63
2023-04-29T19:42:46.274Z,101828.81
2023-04-29T19:45:13.441Z,101822.22
2023-04-29T19:47:43.548Z,101830.03
2023-04-29T19:50:10.992Z,101837.25
2023-04-29T19:52:38.580Z,101832.69
2023-04-29T19:55:07.897Z,101831.59
2023-04-29T19:57:37.114Z,101835.75
2023-04-29T20:00:08.845Z,101829.44
2023-04-29T20:02:36.218Z,101832.97
2023-04-29T20:05:04.118Z,101833.13
2023-04-29T20:07:31.623Z,101835.97
2023-04-29T20:09:59.093Z,101844.63
2023-04-29T20:12:28.026Z,101841.31
2023-04-29T20:14:56.774Z,101840.78
2023-04-29T20:17:26.968Z,101839.50
2023-04-29T20:19:55.212Z,101836.75
2023-04-29T20:22:24.925Z,101833.56
2023-04-29T20:24:52.906Z,101837.00
2023-04-29T20:27:20.491Z,101836.84
2023-04-29T20:29:48.341Z,101841.06
2023-04-29T20:32:15.680Z,101832.72
2023-04-29T20:34:43.453Z,101831.78
2023-04-29T20:37:11.058Z,101828.25
2023-04-29T20:39:40.197Z,101829.22
2023-04-29T20:42:07.616Z,101838.84
2023-04-29T20:44:35.672Z,101827.59
2023-04-29T20:47:04.518Z,101828.34
2023-04-29T20:49:32.682Z,101826.47
2023-04-29T20:52:00.760Z,101825.44
2023-04-29T20:54:28.435Z,101826.47
2023-04-29T20:56:56.775Z,101835.47
2023-04-29T20:59:27.323Z,101833.69
2023-04-29T21:01:54.980Z,101823.97
2023-04-29T21:04:22.530Z,101823.03
2023-04-29T21:06:53.066Z,101833.69
2023-04-29T21:09:20.965Z,101829.38
2023-04-29T21:11:48.821Z,101828.69
2023-04-29T21:14:16.118Z,101830.59
2023-04-29T21:16:43.386Z,101819.94
2023-04-29T21:19:10.521Z,101824.41
2023-04-29T21:21:37.989Z,101819.41
2023-04-29T21:24:05.521Z,101825.59
2023-04-29T21:26:32.808Z,101823.84
2023-04-29T21:28:59.963Z,101816.88
2023-04-29T21:31:27.171Z,101816.94
2023-04-29T21:33:54.333Z,101826.06
2023-04-29T21:36:21.425Z,101821.72
2023-04-29T21:38:49.317Z,101814.91
2023-04-29T21:41:23.788Z,101817.72
2023-04-29T21:43:51.645Z,101820.59
2023-04-29T21:46:20.077Z,101818.28
2023-04-29T21:48:47.816Z,101813.16
2023-04-29T21:51:15.184Z,101823.28
2023-04-29T21:53:43.207Z,101822.41
2023-04-29T21:56:11.093Z,101825.47
2023-04-29T21:58:38.241Z,101830.16
2023-04-29T22:01:25.706Z,101822.38
2023-04-29T22:03:57.059Z,101821.81
2023-04-29T22:06:25.142Z,101829.16
2023-04-29T22:08:52.307Z,101818.69
2023-04-29T22:11:22.130Z,101823.28
2023-04-29T22:13:49.397Z,101816.41
2023-04-29T22:16:17.009Z,101815.69
2023-04-29T22:18:44.028Z,101816.84
2023-04-29T22:21:11.463Z,101810.66
2023-04-29T22:23:38.599Z,101809.03
2023-04-29T22:26:05.830Z,101809.25
2023-04-29T22:28:32.883Z,101801.44
2023-04-29T22:31:00.087Z,101802.59
2023-04-29T22:33:27.308Z,101809.88
2023-04-29T22:35:54.405Z,101801.25
2023-04-29T22:38:21.673Z,101802.28
2023-04-29T22:40:52.595Z,101807.72
2023-04-29T22:43:19.789Z,101796.38
2023-04-29T22:45:54.395Z,101799.94
2023-04-29T22:48:22.017Z,101803.63
2023-04-29T22:50:57.380Z,101798.53
2023-04-29T22:53:24.552Z,101789.00
2023-04-29T22:55:53.451Z,101781.06
2023-04-29T22:58:21.275Z,101780.31
2023-04-29T23:00:53.908Z,101775.16
2023-04-29T23:03:21.077Z,101765.69
2023-04-29T23:05:48.351Z,101771.13
2023-04-29T23:08:15.575Z,101773.09
2023-04-29T23:10:48.191Z,101769.69
2023-04-29T23:13:15.269Z,101770.59
2023-04-29T23:15:42.566Z,101771.69
2023-04-29T23:18:09.676Z,101756.03
2023-04-29T23:20:36.658Z,101755.28
2023-04-29T23:23:04.091Z,101764.94
2023-04-29T23:25:31.274Z,101776.41
2023-04-29T23:27:58.266Z,101782.84
2023-04-29T23:30:25.154Z,101774.13
2023-04-29T23:32:52.391Z,101773.38
2023-04-29T23:35:19.479Z,101767.25
2023-04-29T23:37:46.549Z,101762.06
2023-04-29T23:40:16.423Z,101761.25
2023-04-29T23:42:43.350Z,101754.38
2023-04-29T23:45:10.703Z,101755.44
2023-04-29T23:47:37.754Z,101755.44
2023-04-29T23:50:05.233Z,101751.13
2023-04-29T23:52:32.249Z,101744.19
2023-04-29T23:54:59.272Z,101741.53
2023-04-29T23:57:26.254Z,101744.19
2023-04-29T23:59:53.657Z,101732.00
